sensor_id;sensor_type;location;lat;lon;timestamp;pressure;altitude;pressure_sealevel;temperature;humidity
71903;BME280;59778;50.310;18.780;2023-04-20T00:10:43;98967.47;;;7.28;100.00
71903;BME280;59778;50.310;18.780;2023-04-20T00:26:05;98959.06;;;7.31;100.00
71903;BME280;59778;50.310;18.780;2023-04-20T00:41:26;98948.41;;;7.29;100.00
71903;BME280;59778;50.310;18.780;2023-04-20T00:56:48;98947.22;;;7.24;100.00
71903;BME280;59778;50.310;18.780;2023-04-20T01:12:09;98942.88;;;7.15;100.00
71903;BME280;59778;50.310;18.780;2023-04-20T01:27:31;98936.75;;;7.37;100.00
71903;BME280;59778;50.310;18.780;2023-04-20T01:42:53;98920.38;;;7.38;100.00
71903;BME280;59778;50.310;18.780;2023-04-20T01:58:14;98942.84;;;7.31;100.00
71903;BME280;59778;50.310;18.780;2023-04-20T02:13:35;98936.59;;;7.38;100.00
71903;BME280;59778;50.310;18.780;2023-04-20T02:28:57;98928.63;;;7.45;100.00
71903;BME280;59778;50.310;18.780;2023-04-20T02:44:18;98924.94;;;7.46;100.00
71903;BME280;59778;50.310;18.780;2023-04-20T02:59:39;98928.47;;;7.54;100.00
71903;BME280;59778;50.310;18.780;2023-04-20T03:15:02;98937.22;;;7.65;100.00
71903;BME280;59778;50.310;18.780;2023-04-20T03:30:26;98937.72;;;7.68;100.00
71903;BME280;59778;50.310;18.780;2023-04-20T03:45:47;98953.94;;;7.68;100.00
71903;BME280;59778;50.310;18.780;2023-04-20T04:01:09;98966.25;;;7.71;100.00
71903;BME280;59778;50.310;18.780;2023-04-20T04:16:33;98963.84;;;7.84;100.00
71903;BME280;59778;50.310;18.780;2023-04-20T04:31:57;98966.91;;;7.89;100.00
71903;BME280;59778;50.310;18.780;2023-04-20T04:47:18;98973.44;;;7.94;100.00
71903;BME280;59778;50.310;18.780;2023-04-20T05:02:41;98974.75;;;8.06;100.00
71903;BME280;59778;50.310;18.780;2023-04-20T05:18:03;98986.19;;;8.41;100.00
71903;BME280;59778;50.310;18.780;2023-04-20T05:33:25;99000.41;;;8.66;100.00
71903;BME280;59778;50.310;18.780;2023-04-20T05:48:46;99006.75;;;9.12;100.00
71903;BME280;59778;50.310;18.780;2023-04-20T06:04:07;99012.56;;;9.46;98.13
71903;BME280;59778;50.310;18.780;2023-04-20T06:19:29;99020.81;;;9.75;96.71
71903;BME280;59778;50.310;18.780;2023-04-20T06:34:50;99031.56;;;9.83;94.22
71903;BME280;59778;50.310;18.780;2023-04-20T06:50:12;99029.09;;;10.11;92.19
71903;BME280;59778;50.310;18.780;2023-04-20T07:05:35;99024.50;;;10.70;90.60
71903;BME280;59778;50.310;18.780;2023-04-20T07:20:56;99040.31;;;10.81;89.89
71903;BME280;59778;50.310;18.780;2023-04-20T07:36:17;99047.81;;;11.72;85.98
71903;BME280;59778;50.310;18.780;2023-04-20T07:51:39;99037.16;;;11.77;82.72
71903;BME280;59778;50.310;18.780;2023-04-20T08:07:01;99040.41;;;12.50;81.29
71903;BME280;59778;50.310;18.780;2023-04-20T08:22:22;99033.44;;;13.23;79.34
71903;BME280;59778;50.310;18.780;2023-04-20T08:37:52;99027.47;;;13.06;72.08
71903;BME280;59778;50.310;18.780;2023-04-20T08:53:14;99018.41;;;13.66;73.73
71903;BME280;59778;50.310;18.780;2023-04-20T09:08:37;99022.75;;;15.10;73.09
71903;BME280;59778;50.310;18.780;2023-04-20T09:24:03;99024.22;;;15.13;68.85
71903;BME280;59778;50.310;18.780;2023-04-20T09:39:28;99026.00;;;14.87;67.23
71903;BME280;59778;50.310;18.780;2023-04-20T09:54:50;99017.63;;;14.76;65.96
71903;BME280;59778;50.310;18.780;2023-04-20T10:10:14;99005.09;;;14.61;66.84
71903;BME280;59778;50.310;18.780;2023-04-20T10:25:36;98992.31;;;16.12;61.42
71903;BME280;59778;50.310;18.780;2023-04-20T10:41:10;98989.94;;;15.41;62.14
71903;BME280;59778;50.310;18.780;2023-04-20T10:56:40;98973.22;;;15.81;60.82
71903;BME280;59778;50.310;18.780;2023-04-20T11:12:06;98965.56;;;15.33;64.07
71903;BME280;59778;50.310;18.780;2023-04-20T11:27:28;98972.41;;;14.80;67.39
71903;BME280;59778;50.310;18.780;2023-04-20T11:42:49;98971.53;;;16.04;64.99
71903;BME280;59778;50.310;18.780;2023-04-20T11:58:10;98956.38;;;16.27;59.35
71903;BME280;59778;50.310;18.780;2023-04-20T12:13:32;98946.31;;;16.93;58.89
71903;BME280;59778;50.310;18.780;2023-04-20T12:28:53;98947.16;;;15.96;62.49
71903;BME280;59778;50.310;18.780;2023-04-20T12:44:14;98943.25;;;16.11;62.63
71903;BME280;59778;50.310;18.780;2023-04-20T12:59:36;98935.22;;;17.00;60.69
71903;BME280;59778;50.310;18.780;2023-04-20T13:14:57;98925.66;;;17.74;58.46
71903;BME280;59778;50.310;18.780;2023-04-20T13:30:18;98917.50;;;18.60;57.65
71903;BME280;59778;50.310;18.780;2023-04-20T13:45:41;98906.31;;;19.52;54.63
71903;BME280;59778;50.310;18.780;2023-04-20T14:01:07;98903.09;;;19.55;48.81
71903;BME280;59778;50.310;18.780;2023-04-20T14:16:29;98887.66;;;18.69;47.68
71903;BME280;59778;50.310;18.780;2023-04-20T14:31:50;98897.81;;;18.28;50.91
71903;BME280;59778;50.310;18.780;2023-04-20T14:47:12;98889.34;;;19.26;46.94
71903;BME280;59778;50.310;18.780;2023-04-20T15:02:33;98897.66;;;19.43;45.34
71903;BME280;59778;50.310;18.780;2023-04-20T15:17:55;98894.19;;;19.36;43.98
71903;BME280;59778;50.310;18.780;2023-04-20T15:33:17;98892.03;;;19.88;40.46
71903;BME280;59778;50.310;18.780;2023-04-20T15:48:38;98896.56;;;18.59;43.90
71903;BME280;59778;50.310;18.780;2023-04-20T16:03:59;98896.88;;;19.03;45.02
71903;BME280;59778;50.310;18.780;2023-04-20T16:19:21;98890.78;;;18.09;45.09
71903;BME280;59778;50.310;18.780;2023-04-20T16:34:42;98885.34;;;17.03;47.88
71903;BME280;59778;50.310;18.780;2023-04-20T16:50:04;98898.41;;;16.60;50.51
71903;BME280;59778;50.310;18.780;2023-04-20T17:05:27;98902.75;;;15.94;54.07
71903;BME280;59778;50.310;18.780;2023-04-20T17:20:48;98920.91;;;15.39;57.74
71903;BME280;59778;50.310;18.780;2023-04-20T17:36:10;98920.59;;;14.91;60.47
71903;BME280;59778;50.310;18.780;2023-04-20T17:51:31;98924.38;;;14.46;61.44
71903;BME280;59778;50.310;18.780;2023-04-20T18:06:52;98921.31;;;14.09;63.76
71903;BME280;59778;50.310;18.780;2023-04-20T18:22:14;98931.22;;;13.91;64.99
71903;BME280;59778;50.310;18.780;2023-04-20T18:37:36;98938.81;;;13.49;67.28
71903;BME280;59778;50.310;18.780;2023-04-20T18:52:58;98937.31;;;13.20;69.19
71903;BME280;59778;50.310;18.780;2023-04-20T19:08:20;98939.13;;;12.87;71.59
71903;BME280;59778;50.310;18.780;2023-04-20T19:23:42;98937.19;;;12.68;73.77
71903;BME280;59778;50.310;18.780;2023-04-20T19:39:03;98939.84;;;12.55;75.79
71903;BME280;59778;50.310;18.780;2023-04-20T19:54:27;98942.66;;;12.27;78.24
71903;BME280;59778;50.310;18.780;2023-04-20T20:09:48;98930.66;;;12.15;79.28
71903;BME280;59778;50.310;18.780;2023-04-20T20:25:09;98922.13;;;11.90;81.10
71903;BME280;59778;50.310;18.780;2023-04-20T20:40:31;98932.81;;;11.64;83.19
71903;BME280;59778;50.310;18.780;2023-04-20T20:55:54;98931.75;;;11.37;85.17
71903;BME280;59778;50.310;18.780;2023-04-20T21:11:15;98926.03;;;11.25;85.67
71903;BME280;59778;50.310;18.780;2023-04-20T21:26:36;98938.94;;;11.02;86.61
71903;BME280;59778;50.310;18.780;2023-04-20T21:41:58;98932.72;;;10.87;87.89
71903;BME280;59778;50.310;18.780;2023-04-20T21:57:19;98941.41;;;10.76;87.14
71903;BME280;59778;50.310;18.780;2023-04-20T22:12:41;98944.22;;;10.68;86.71
71903;BME280;59778;50.310;18.780;2023-04-20T22:28:02;98937.88;;;10.61;85.71
71903;BME280;59778;50.310;18.780;2023-04-20T22:43:23;98934.75;;;10.28;86.02
71903;BME280;59778;50.310;18.780;2023-04-20T22:58:45;98932.78;;;9.92;86.29
71903;BME280;59778;50.310;18.780;2023-04-20T23:14:07;98935.81;;;9.45;88.51
71903;BME280;59778;50.310;18.780;2023-04-20T23:29:28;98936.28;;;9.49;88.34
71903;BME280;59778;50.310;18.780;2023-04-20T23:44:50;98920.19;;;9.33;88.80
